createdAt,value
2022-10-11T00:00:42.591Z,8.38
2022-10-11T00:03:42.603Z,8.37
2022-10-11T00:06:42.629Z,8.34
2022-10-11T00:09:42.610Z,8.34
2022-10-11T00:12:42.625Z,8.34
2022-10-11T00:15:42.624Z,8.35
2022-10-11T00:18:42.635Z,8.3
2022-10-11T00:21:42.630Z,8.3
2022-10-11T00:24:42.677Z,8.31
2022-10-11T00:27:42.651Z,8.3
2022-10-11T00:30:42.665Z,8.33
2022-10-11T00:33:42.677Z,8.32
2022-10-11T00:36:42.672Z,8.33
2022-10-11T00:39:42.680Z,8.32
2022-10-11T00:42:42.702Z,8.31
2022-10-11T00:45:42.688Z,8.26
2022-10-11T00:48:42.705Z,8.25
2022-10-11T00:51:42.707Z,8.26
2022-10-11T00:54:42.705Z,8.19
2022-10-11T00:57:42.718Z,8.19
2022-10-11T01:00:42.748Z,8.15
2022-10-11T01:03:42.738Z,8.14
2022-10-11T01:06:42.743Z,8.15
2022-10-11T01:09:42.745Z,8.17
2022-10-11T01:12:42.754Z,8.16
2022-10-11T01:15:42.767Z,8.12
2022-10-11T01:18:42.799Z,8.12
2022-10-11T01:21:42.776Z,8.12
2022-10-11T01:24:42.779Z,8.05
2022-10-11T01:27:42.779Z,8.05
2022-10-11T01:30:42.791Z,7.99
2022-10-11T01:33:42.792Z,8
2022-10-11T01:36:42.835Z,8.01
2022-10-11T01:39:42.811Z,7.97
2022-10-11T01:42:42.823Z,7.98
2022-10-11T01:45:42.822Z,7.98
2022-10-11T01:48:42.839Z,7.98
2022-10-11T01:51:46.438Z,7.98
2022-10-11T01:55:07.953Z,7.98
2022-10-11T01:57:42.856Z,7.93
2022-10-11T02:00:42.866Z,7.92
2022-10-11T02:03:42.872Z,7.92
2022-10-11T02:06:42.875Z,7.87
2022-10-11T02:09:42.885Z,7.87
2022-10-11T02:12:42.925Z,7.87
2022-10-11T02:15:42.909Z,7.87
2022-10-11T02:18:42.936Z,7.82
2022-10-11T02:21:42.920Z,7.76
2022-10-11T02:24:42.918Z,7.74
2022-10-11T02:27:42.930Z,7.7
2022-10-11T02:30:42.968Z,7.72
2022-10-11T02:33:42.955Z,7.73
2022-10-11T02:36:42.951Z,7.79
2022-10-11T02:39:42.960Z,7.79
2022-10-11T02:42:42.977Z,7.8
2022-10-11T02:45:42.983Z,7.79
2022-10-11T02:48:43.016Z,7.74
2022-10-11T02:51:43.012Z,7.74
2022-10-11T02:54:43.012Z,7.74
2022-10-11T02:57:43.018Z,7.69
2022-10-11T03:00:43.031Z,7.69
2022-10-11T03:03:43.044Z,7.68
2022-10-11T03:06:43.072Z,7.64
2022-10-11T03:09:43.056Z,7.63
2022-10-11T03:12:43.057Z,7.63
2022-10-11T03:15:43.059Z,7.59
2022-10-11T03:18:43.078Z,7.59
2022-10-11T03:21:43.090Z,7.59
2022-10-11T03:24:43.127Z,7.6
2022-10-11T03:27:43.109Z,7.6
2022-10-11T03:30:43.113Z,7.6
2022-10-11T03:33:43.119Z,7.55
2022-10-11T03:36:43.128Z,7.55
2022-10-11T03:39:43.151Z,7.55
2022-10-11T03:42:43.186Z,7.5
2022-10-11T03:45:43.172Z,7.5
2022-10-11T03:48:43.184Z,7.51
2022-10-11T03:51:43.194Z,7.51
2022-10-11T03:54:43.206Z,7.51
2022-10-11T03:57:43.219Z,7.52
2022-10-11T04:00:43.253Z,7.57
2022-10-11T04:03:43.233Z,7.58
2022-10-11T04:06:43.243Z,7.57
2022-10-11T04:09:43.253Z,7.57
2022-10-11T04:12:43.266Z,7.56
2022-10-11T04:15:43.279Z,7.56
2022-10-11T04:18:43.325Z,7.51
2022-10-11T04:21:43.315Z,7.51
2022-10-11T04:24:43.315Z,7.5
2022-10-11T04:27:43.311Z,7.51
2022-10-11T04:30:43.330Z,7.51
2022-10-11T04:33:43.337Z,7.51
2022-10-11T04:36:46.321Z,7.51
2022-10-11T04:39:43.363Z,7.51
2022-10-11T04:42:43.373Z,7.46
2022-10-11T04:45:43.492Z,7.45
2022-10-11T04:48:43.398Z,7.45
2022-10-11T04:51:43.422Z,7.45
2022-10-11T04:54:43.452Z,7.4
2022-10-11T04:57:43.436Z,7.4
2022-10-11T05:00:43.441Z,7.4
2022-10-11T05:03:43.457Z,7.4
2022-10-11T05:06:43.485Z,7.4
2022-10-11T05:09:43.476Z,7.35
2022-10-11T05:12:43.514Z,7.35
2022-10-11T05:15:43.495Z,7.41
2022-10-11T05:18:43.505Z,7.42
2022-10-11T05:21:43.536Z,7.42
2022-10-11T05:24:43.531Z,7.37
2022-10-11T05:27:43.542Z,7.42
2022-10-11T05:30:43.663Z,7.37
2022-10-11T05:33:43.561Z,7.36
2022-10-11T05:36:43.584Z,7.36
2022-10-11T05:39:43.587Z,7.36
2022-10-11T05:42:43.597Z,7.36
2022-10-11T05:45:43.603Z,7.36
2022-10-11T05:48:43.655Z,7.37
2022-10-11T05:51:43.641Z,7.38
2022-10-11T05:54:43.635Z,7.43
2022-10-11T05:57:43.655Z,7.43
2022-10-11T06:00:43.662Z,7.48
2022-10-11T06:03:43.668Z,7.53
2022-10-11T06:06:43.727Z,7.52
2022-10-11T06:09:43.691Z,7.57
2022-10-11T06:12:43.695Z,7.56
2022-10-11T06:15:43.704Z,7.56
2022-10-11T06:18:43.713Z,7.61
2022-10-11T06:21:43.740Z,7.65
2022-10-11T06:24:43.760Z,7.75
2022-10-11T06:27:43.755Z,7.79
2022-10-11T06:30:43.768Z,7.87
2022-10-11T06:33:43.785Z,7.95
2022-10-11T06:36:43.799Z,8.01
2022-10-11T06:39:43.847Z,8.08
2022-10-11T06:42:43.902Z,8.14
2022-10-11T06:45:43.850Z,8.19
2022-10-11T06:48:43.831Z,8.19
2022-10-11T06:51:43.851Z,8.23
2022-10-11T06:54:44.963Z,8.29
2022-10-11T06:57:43.857Z,8.26
2022-10-11T07:00:43.950Z,8.36
2022-10-11T07:03:43.888Z,8.29
2022-10-11T07:06:43.920Z,8.37
2022-10-11T07:09:43.906Z,8.41
2022-10-11T07:12:43.933Z,8.44
2022-10-11T07:15:43.927Z,8.39
2022-10-11T07:18:44.111Z,8.48
2022-10-11T07:21:43.972Z,8.56
2022-10-11T07:24:43.964Z,8.68
2022-10-11T07:27:43.980Z,8.61
2022-10-11T07:30:43.995Z,8.65
2022-10-11T07:33:43.994Z,8.83
2022-10-11T07:36:44.041Z,8.64
2022-10-11T07:39:44.066Z,8.68
2022-10-11T07:42:44.034Z,8.78
2022-10-11T07:45:44.207Z,8.86
2022-10-11T07:48:44.053Z,8.76
2022-10-11T07:51:44.079Z,8.76
2022-10-11T07:54:44.106Z,8.75
2022-10-11T07:57:44.096Z,8.78
2022-10-11T08:00:44.126Z,8.82
2022-10-11T08:03:44.108Z,8.88
2022-10-11T08:06:44.152Z,8.88
2022-10-11T08:09:44.134Z,8.82
2022-10-11T08:12:44.169Z,8.87
2022-10-11T08:15:44.153Z,8.87
2022-10-11T08:18:44.166Z,8.86
2022-10-11T08:21:44.192Z,8.9
2022-10-11T08:24:44.184Z,8.96
2022-10-11T08:27:44.202Z,8.97
2022-10-11T08:30:44.244Z,8.92
2022-10-11T08:33:44.225Z,8.93
2022-10-11T08:36:44.243Z,8.91
2022-10-11T08:39:44.255Z,8.9
2022-10-11T08:42:44.253Z,8.9
2022-10-11T08:45:44.261Z,8.95
2022-10-11T08:48:44.302Z,8.96
2022-10-11T08:51:44.301Z,9.12
2022-10-11T08:54:44.300Z,9.11
2022-10-11T08:57:44.302Z,9.22
2022-10-11T09:00:44.311Z,9.26
2022-10-11T09:03:44.330Z,9.17
2022-10-11T09:06:44.378Z,9.21
2022-10-11T09:09:44.348Z,9.26
2022-10-11T09:12:44.361Z,9.09
2022-10-11T09:15:44.366Z,9.26
2022-10-11T09:18:44.372Z,9.27
2022-10-11T09:21:44.400Z,9.23
2022-10-11T09:24:44.530Z,9.27
2022-10-11T09:28:01.600Z,9.28
2022-10-11T09:30:44.416Z,9.34
2022-10-11T09:33:44.424Z,9.36
2022-10-11T09:36:44.448Z,9.29
2022-10-11T09:39:44.449Z,9.11
2022-10-11T09:42:44.479Z,9.15
2022-10-11T09:45:48.421Z,9.01
2022-10-11T09:48:44.472Z,9.18
2022-10-11T09:51:44.641Z,9.02
2022-10-11T09:54:44.507Z,8.95
2022-10-11T09:57:44.501Z,9
2022-10-11T10:00:44.534Z,9.04
2022-10-11T10:03:44.521Z,8.84
2022-10-11T10:06:44.536Z,8.85
2022-10-11T10:09:44.534Z,8.68
2022-10-11T10:12:44.542Z,8.75
2022-10-11T10:15:44.549Z,8.85
2022-10-11T10:18:44.682Z,8.8
2022-10-11T10:21:44.578Z,8.73
2022-10-11T10:24:44.579Z,8.83
2022-10-11T10:27:44.589Z,8.75
2022-10-11T10:30:44.593Z,8.73
2022-10-11T10:33:44.600Z,8.69
2022-10-11T10:36:44.661Z,8.6
2022-10-11T10:39:44.624Z,8.37
2022-10-11T10:42:44.629Z,8.41
2022-10-11T10:45:44.636Z,8.6
2022-10-11T10:49:19.031Z,8.48
2022-10-11T10:51:44.674Z,8.21
2022-10-11T10:54:44.692Z,8.17
2022-10-11T10:57:44.671Z,8.14
2022-10-11T11:00:44.679Z,8.17
2022-10-11T11:03:44.684Z,8.15
2022-10-11T11:06:44.710Z,8.13
2022-10-11T11:09:44.697Z,7.95
2022-10-11T11:12:44.730Z,7.91
2022-10-11T11:15:44.711Z,7.98
2022-10-11T11:18:44.723Z,7.89
2022-10-11T11:21:44.735Z,7.79
2022-10-11T11:24:44.732Z,7.71
2022-10-11T11:27:44.743Z,7.77
2022-10-11T11:30:44.797Z,7.74
2022-10-11T11:33:48.579Z,7.8
2022-10-11T11:36:44.775Z,7.73
2022-10-11T11:39:44.760Z,7.69
2022-10-11T11:42:44.767Z,7.83
2022-10-11T11:45:44.772Z,7.8
2022-10-11T11:48:44.800Z,7.76
2022-10-11T11:51:44.808Z,7.77
2022-10-11T11:54:44.785Z,7.79
2022-10-11T11:57:44.787Z,7.62
2022-10-11T12:00:44.787Z,7.38
2022-10-11T12:03:44.788Z,7.57
2022-10-11T12:07:04.292Z,7.66
2022-10-11T12:09:44.795Z,7.62
2022-10-11T12:12:44.804Z,7.69
2022-10-11T12:15:44.799Z,7.62
2022-10-11T12:18:44.801Z,7.66
2022-10-11T12:21:44.809Z,7.73
2022-10-11T12:24:44.830Z,7.81
2022-10-11T12:27:44.798Z,7.59
2022-10-11T12:30:44.799Z,7.63
2022-10-11T12:33:44.801Z,7.56
2022-10-11T12:36:44.812Z,7.64
2022-10-11T12:39:44.805Z,7.68
2022-10-11T12:42:44.841Z,7.41
2022-10-11T12:45:44.807Z,7.17
2022-10-11T12:48:44.810Z,7.23
2022-10-11T12:51:44.834Z,7.33
2022-10-11T12:54:44.819Z,7.29
2022-10-11T12:57:46.263Z,7.4
2022-10-11T13:00:44.842Z,7.36
2022-10-11T13:03:44.820Z,7.53
2022-10-11T13:06:44.833Z,7.46
2022-10-11T13:09:48.910Z,7.45
2022-10-11T13:12:44.830Z,7.48
2022-10-11T13:15:44.833Z,7.44
2022-10-11T13:18:44.856Z,7.44
2022-10-11T13:21:44.841Z,7.46
2022-10-11T13:24:44.838Z,7.44
2022-10-11T13:27:44.840Z,7.42
2022-10-11T13:30:44.835Z,7.28
2022-10-11T13:33:44.841Z,7.4
2022-10-11T13:36:44.872Z,7.47
2022-10-11T13:39:44.843Z,7.5
2022-10-11T13:42:44.842Z,7.62
2022-10-11T13:45:44.849Z,7.58
2022-10-11T13:48:44.855Z,7.61
2022-10-11T13:51:44.865Z,7.61
2022-10-11T13:54:44.879Z,7.59
2022-10-11T13:57:44.862Z,7.59
2022-10-11T14:00:44.867Z,7.57
2022-10-11T14:03:44.871Z,7.39
2022-10-11T14:06:44.880Z,7.38
2022-10-11T14:09:44.872Z,7.41
2022-10-11T14:12:44.902Z,7.36
2022-10-11T14:15:44.888Z,6.86
2022-10-11T14:18:44.880Z,6.68
2022-10-11T14:21:44.902Z,6.68
2022-10-11T14:24:45.040Z,6.69
2022-10-11T14:27:44.884Z,6.83
2022-10-11T14:30:44.917Z,6.83
2022-10-11T14:33:44.898Z,6.85
2022-10-11T14:36:44.912Z,6.84
2022-10-11T14:39:44.899Z,6.93
2022-10-11T14:42:44.901Z,6.97
2022-10-11T14:45:44.907Z,6.94
2022-10-11T14:49:00.426Z,6.91
2022-10-11T14:51:44.951Z,6.99
2022-10-11T14:54:44.918Z,7.04
2022-10-11T14:57:44.910Z,7.02
2022-10-11T15:00:44.917Z,7.07
2022-10-11T15:03:44.920Z,7.05
2022-10-11T15:06:44.953Z,7.07
2022-10-11T15:09:44.920Z,7.08
2022-10-11T15:12:44.923Z,7.05
2022-10-11T15:15:44.937Z,7.11
2022-10-11T15:18:44.929Z,7.15
2022-10-11T15:21:44.938Z,7.14
2022-10-11T15:24:48.157Z,7.19
2022-10-11T15:27:44.934Z,7.17
2022-10-11T15:30:44.937Z,7.21
2022-10-11T15:33:44.949Z,7.24
2022-10-11T15:36:44.945Z,7.15
2022-10-11T15:39:44.941Z,7.15
2022-10-11T15:42:44.959Z,7.13
2022-10-11T15:45:44.938Z,7.12
2022-10-11T15:48:44.943Z,7.11
2022-10-11T15:51:44.948Z,7.11
2022-10-11T15:54:44.953Z,7.12
2022-10-11T15:57:44.945Z,7.14
2022-10-11T16:00:44.975Z,7.1
2022-10-11T16:03:44.958Z,7.08
2022-10-11T16:06:44.962Z,7.07
2022-10-11T16:09:44.955Z,7.07
2022-10-11T16:12:44.953Z,7.07
2022-10-11T16:15:44.957Z,7.03
2022-10-11T16:18:45.028Z,7.01
2022-10-11T16:21:44.978Z,7.02
2022-10-11T16:24:44.969Z,6.98
2022-10-11T16:27:44.971Z,6.99
2022-10-11T16:30:44.974Z,7.01
2022-10-11T16:33:44.970Z,7.04
2022-10-11T16:36:45.013Z,7.05
2022-10-11T16:39:44.972Z,7.03
2022-10-11T16:42:44.976Z,7.01
2022-10-11T16:45:44.973Z,7
2022-10-11T16:48:44.975Z,7.03
2022-10-11T16:51:44.990Z,7
2022-10-11T16:54:45.006Z,7.03
2022-10-11T16:57:44.987Z,7.04
2022-10-11T17:00:45.118Z,7.04
2022-10-11T17:03:44.995Z,6.99
2022-10-11T17:06:45.014Z,7.05
2022-10-11T17:09:44.993Z,7.02
2022-10-11T17:12:49.251Z,7.04
2022-10-11T17:15:44.997Z,7.04
2022-10-11T17:18:45.007Z,7.07
2022-10-11T17:21:45.012Z,7.1
2022-10-11T17:24:45.005Z,7.08
2022-10-11T17:27:45.003Z,6.97
2022-10-11T17:30:45.032Z,6.91
2022-10-11T17:33:45.009Z,6.87
2022-10-11T17:36:45.044Z,6.95
2022-10-11T17:39:45.007Z,7.02
2022-10-11T17:42:45.018Z,6.99
2022-10-11T17:45:45.023Z,6.92
2022-10-11T17:48:45.051Z,6.85
2022-10-11T17:51:45.049Z,6.8
2022-10-11T17:54:45.019Z,6.75
2022-10-11T17:57:45.026Z,6.77
2022-10-11T18:00:45.080Z,6.75
2022-10-11T18:03:45.031Z,6.76
2022-10-11T18:06:45.253Z,6.82
2022-10-11T18:09:45.039Z,6.83
2022-10-11T18:12:45.034Z,6.85
2022-10-11T18:15:45.038Z,6.85
2022-10-11T18:18:45.046Z,6.79
2022-10-11T18:21:45.069Z,6.79
2022-10-11T18:24:45.073Z,6.81
2022-10-11T18:27:45.052Z,6.84
2022-10-11T18:30:45.049Z,6.9
2022-10-11T18:33:45.053Z,6.9
2022-10-11T18:36:45.063Z,6.92
2022-10-11T18:39:45.056Z,6.89
2022-10-11T18:42:45.087Z,6.88
2022-10-11T18:45:45.057Z,6.84
2022-10-11T18:48:45.061Z,6.8
2022-10-11T18:51:45.276Z,6.77
2022-10-11T18:54:45.068Z,6.78
2022-10-11T18:57:45.064Z,6.75
2022-10-11T19:00:45.243Z,6.8
2022-10-11T19:03:45.075Z,6.79
2022-10-11T19:06:45.090Z,6.81
2022-10-11T19:09:45.081Z,6.8
2022-10-11T19:12:45.086Z,6.76
2022-10-11T19:15:45.093Z,6.77
2022-10-11T19:18:45.112Z,6.73
2022-10-11T19:21:45.092Z,6.74
2022-10-11T19:24:45.086Z,6.76
2022-10-11T19:27:45.090Z,6.79
2022-10-11T19:30:45.091Z,6.76
2022-10-11T19:33:45.104Z,6.71
2022-10-11T19:36:45.142Z,6.72
2022-10-11T19:39:45.104Z,6.69
2022-10-11T19:42:45.112Z,6.7
2022-10-11T19:45:45.121Z,6.67
2022-10-11T19:48:45.121Z,6.69
2022-10-11T19:51:45.329Z,6.71
2022-10-11T19:54:45.164Z,6.66
2022-10-11T19:57:45.143Z,6.66
2022-10-11T20:00:45.132Z,6.67
2022-10-11T20:03:45.146Z,6.67
2022-10-11T20:06:45.178Z,6.72
2022-10-11T20:09:45.148Z,6.74
2022-10-11T20:12:46.045Z,6.8
2022-10-11T20:15:45.160Z,6.79
2022-10-11T20:18:45.165Z,6.85
2022-10-11T20:21:45.369Z,6.91
2022-10-11T20:24:45.168Z,6.93
2022-10-11T20:27:45.182Z,6.91
2022-10-11T20:30:45.204Z,6.88
2022-10-11T20:33:45.189Z,6.88
2022-10-11T20:36:48.309Z,6.86
2022-10-11T20:39:45.190Z,6.8
2022-10-11T20:42:45.194Z,6.83
2022-10-11T20:45:45.205Z,6.91
2022-10-11T20:48:45.224Z,6.9
2022-10-11T20:51:45.390Z,6.88
2022-10-11T20:54:45.210Z,6.82
2022-10-11T20:57:45.212Z,6.82
2022-10-11T21:00:45.221Z,6.78
2022-10-11T21:03:45.212Z,6.74
2022-10-11T21:06:45.272Z,6.7
2022-10-11T21:09:45.227Z,6.71
2022-10-11T21:12:45.229Z,6.75
2022-10-11T21:15:45.233Z,6.7
2022-10-11T21:18:45.238Z,6.64
2022-10-11T21:21:48.479Z,6.63
2022-10-11T21:24:45.268Z,6.57
2022-10-11T21:27:45.250Z,6.48
2022-10-11T21:30:45.258Z,6.45
2022-10-11T21:33:45.262Z,6.5
2022-10-11T21:36:45.276Z,6.58
2022-10-11T21:39:45.267Z,6.6
2022-10-11T21:42:45.308Z,6.6
2022-10-11T21:45:45.280Z,6.57
2022-10-11T21:48:45.286Z,6.5
2022-10-11T21:51:45.300Z,6.45
2022-10-11T21:54:45.297Z,6.44
2022-10-11T21:57:45.311Z,6.35
2022-10-11T22:00:45.325Z,6.36
2022-10-11T22:03:45.307Z,6.32
2022-10-11T22:06:45.329Z,6.28
2022-10-11T22:09:45.313Z,6.3
2022-10-11T22:12:45.332Z,6.34
2022-10-11T22:15:45.325Z,6.35
2022-10-11T22:18:45.360Z,6.3
2022-10-11T22:21:45.547Z,6.25
2022-10-11T22:24:45.338Z,6.2
2022-10-11T22:27:45.354Z,6.15
2022-10-11T22:30:45.342Z,6.16
2022-10-11T22:36:45.400Z,6.2
2022-10-11T22:39:45.370Z,6.31
2022-10-11T22:42:45.378Z,6.32
2022-10-11T22:45:45.371Z,6.23
2022-10-11T22:48:45.393Z,6.17
2022-10-11T22:51:45.398Z,6.17
2022-10-11T22:54:45.420Z,6.19
2022-10-11T22:57:45.413Z,6.2
2022-10-11T23:00:45.402Z,6.26
2022-10-11T23:03:45.445Z,6.17
2022-10-11T23:06:45.419Z,6.11
2022-10-11T23:09:45.410Z,6.11
2022-10-11T23:12:45.457Z,6.12
2022-10-11T23:15:45.451Z,6.09
2022-10-11T23:18:45.434Z,6.04
2022-10-11T23:21:45.449Z,5.98
2022-10-11T23:24:45.438Z,5.93
2022-10-11T23:27:45.463Z,5.93
2022-10-11T23:30:45.471Z,5.99
2022-10-11T23:33:45.467Z,6.01
2022-10-11T23:36:45.485Z,6.08
2022-10-11T23:39:45.468Z,6.09
2022-10-11T23:42:45.505Z,6.05
2022-10-11T23:45:45.474Z,5.98
2022-10-11T23:48:45.509Z,5.91
2022-10-11T23:51:45.505Z,5.9
2022-10-11T23:54:45.499Z,5.87
2022-10-11T23:57:45.540Z,5.88
